createdAt,value
2018-08-25T00:02:13.267Z,15.40
2018-08-25T00:04:41.568Z,15.40
2018-08-25T00:07:10.008Z,15.30
2018-08-25T00:09:39.406Z,15.30
2018-08-25T00:12:07.709Z,15.30
2018-08-25T00:14:36.013Z,15.30
2018-08-25T00:17:04.541Z,15.30
2018-08-25T00:19:32.845Z,15.40
2018-08-25T00:22:01.198Z,15.40
2018-08-25T00:24:29.496Z,15.30
2018-08-25T00:26:57.804Z,15.30
2018-08-25T00:29:26.094Z,15.30
2018-08-25T00:31:54.360Z,15.20
2018-08-25T00:34:23.014Z,15.30
2018-08-25T00:36:51.315Z,15.20
2018-08-25T00:39:19.607Z,15.20
2018-08-25T00:41:47.885Z,15.20
2018-08-25T00:44:16.184Z,15.20
2018-08-25T00:46:45.015Z,15.30
2018-08-25T00:49:13.457Z,15.30
2018-08-25T00:51:41.758Z,15.30
2018-08-25T00:54:10.030Z,15.30
2018-08-25T00:56:38.325Z,15.30
2018-08-25T00:59:06.619Z,15.30
2018-08-25T01:01:34.900Z,15.30
2018-08-25T01:04:03.203Z,15.40
2018-08-25T01:06:31.567Z,15.40
2018-08-25T01:08:59.963Z,15.40
2018-08-25T01:11:28.246Z,15.50
2018-08-25T01:13:56.529Z,15.40
2018-08-25T01:16:24.821Z,15.40
2018-08-25T01:18:53.096Z,15.40
2018-08-25T01:21:44.014Z,15.40
2018-08-25T01:24:12.279Z,15.40
2018-08-25T01:26:40.560Z,15.30
2018-08-25T01:29:08.828Z,15.30
2018-08-25T01:31:37.099Z,15.30
2018-08-25T01:34:05.394Z,15.30
2018-08-25T01:36:33.682Z,15.20
2018-08-25T01:39:01.953Z,15.20
2018-08-25T01:41:30.248Z,15.20
2018-08-25T01:43:58.520Z,15.20
2018-08-25T01:46:26.806Z,15.20
2018-08-25T01:48:55.080Z,15.20
2018-08-25T01:51:23.362Z,15.20
2018-08-25T01:53:51.628Z,15.20
2018-08-25T01:56:19.920Z,15.20
2018-08-25T01:58:48.229Z,15.30
2018-08-25T02:01:16.492Z,15.30
2018-08-25T02:03:44.768Z,15.30
2018-08-25T02:06:13.059Z,15.30
2018-08-25T02:08:41.357Z,15.30
2018-08-25T02:11:09.657Z,15.20
2018-08-25T02:13:37.925Z,15.20
2018-08-25T02:16:06.856Z,15.20
2018-08-25T02:18:35.136Z,15.20
2018-08-25T02:21:03.456Z,15.30
2018-08-25T02:23:31.745Z,15.30
2018-08-25T02:26:00.025Z,15.40
2018-08-25T02:28:28.309Z,15.40
2018-08-25T02:30:56.596Z,15.40
2018-08-25T02:33:24.924Z,15.40
2018-08-25T02:35:53.228Z,15.30
2018-08-25T02:38:21.504Z,15.20
2018-08-25T02:40:49.829Z,15.20
2018-08-25T02:43:18.116Z,15.20
2018-08-25T02:45:46.428Z,15.20
2018-08-25T02:48:14.713Z,15.30
2018-08-25T02:50:42.996Z,15.40
2018-08-25T02:53:11.265Z,15.40
2018-08-25T02:55:39.529Z,15.40
2018-08-25T02:58:07.827Z,15.30
2018-08-25T03:00:36.093Z,15.20
2018-08-25T03:03:04.382Z,15.20
2018-08-25T03:05:32.666Z,15.20
2018-08-25T03:08:00.964Z,15.20
2018-08-25T03:10:29.254Z,15.20
2018-08-25T03:12:57.520Z,15.30
2018-08-25T03:15:25.801Z,15.30
2018-08-25T03:17:54.085Z,15.30
2018-08-25T03:20:22.369Z,15.30
2018-08-25T03:22:50.636Z,15.40
2018-08-25T03:25:18.921Z,15.40
2018-08-25T03:27:47.191Z,15.40
2018-08-25T03:30:15.449Z,15.30
2018-08-25T03:32:43.725Z,15.30
2018-08-25T03:35:12.840Z,15.20
2018-08-25T03:37:41.109Z,15.20
2018-08-25T03:40:09.384Z,15.30
2018-08-25T03:42:37.656Z,15.30
2018-08-25T03:45:05.965Z,15.30
2018-08-25T03:47:34.237Z,15.30
2018-08-25T03:50:02.529Z,15.30
2018-08-25T03:52:30.804Z,15.30
2018-08-25T03:54:59.080Z,15.30
2018-08-25T03:57:27.365Z,15.40
2018-08-25T03:59:55.640Z,15.40
2018-08-25T04:02:24.100Z,15.40
2018-08-25T04:04:52.384Z,15.40
2018-08-25T04:07:20.651Z,15.50
2018-08-25T04:09:48.929Z,15.60
2018-08-25T04:12:17.203Z,15.70
2018-08-25T04:14:45.520Z,15.70
2018-08-25T04:17:13.769Z,15.80
2018-08-25T04:19:42.049Z,15.60
2018-08-25T04:22:10.345Z,15.50
2018-08-25T04:24:38.604Z,15.50
2018-08-25T04:27:06.879Z,15.50
2018-08-25T04:29:35.155Z,15.50
2018-08-25T04:32:03.459Z,15.50
2018-08-25T04:34:31.755Z,15.50
2018-08-25T04:37:00.024Z,15.40
2018-08-25T04:39:28.288Z,15.40
2018-08-25T04:41:56.577Z,15.30
2018-08-25T04:44:24.852Z,15.20
2018-08-25T04:46:53.125Z,15.20
2018-08-25T04:49:21.390Z,15.20
2018-08-25T04:51:49.696Z,15.10
2018-08-25T04:54:17.975Z,15.10
2018-08-25T04:56:46.275Z,15.10
2018-08-25T04:59:14.554Z,15.10
2018-08-25T05:01:42.857Z,15.20
2018-08-25T05:04:11.086Z,15.10
2018-08-25T05:06:39.365Z,15.10
2018-08-25T05:09:09.160Z,15.10
2018-08-25T05:11:37.444Z,15.10
2018-08-25T05:14:05.724Z,15.00
2018-08-25T05:16:33.998Z,15.10
2018-08-25T05:19:02.301Z,15.20
2018-08-25T05:21:30.585Z,15.10
2018-08-25T05:23:58.872Z,15.20
2018-08-25T05:26:27.127Z,15.30
2018-08-25T05:28:55.395Z,15.30
2018-08-25T05:31:23.664Z,15.40
2018-08-25T05:33:51.947Z,15.40
2018-08-25T05:36:20.241Z,15.30
2018-08-25T05:38:48.538Z,15.40
2018-08-25T05:41:16.833Z,15.40
2018-08-25T05:43:45.120Z,15.40
2018-08-25T05:46:13.386Z,15.50
2018-08-25T05:48:41.657Z,15.40
2018-08-25T05:51:09.917Z,15.50
2018-08-25T05:53:38.206Z,15.40
2018-08-25T05:56:06.587Z,15.40
2018-08-25T05:58:34.849Z,15.30
2018-08-25T06:01:03.173Z,15.40
2018-08-25T06:03:31.425Z,15.40
2018-08-25T06:05:59.697Z,15.40
2018-08-25T06:08:27.977Z,15.50
2018-08-25T06:10:56.292Z,15.50
2018-08-25T06:13:24.573Z,15.50
2018-08-25T06:15:52.826Z,15.60
2018-08-25T06:18:21.097Z,15.60
2018-08-25T06:20:49.384Z,15.60
2018-08-25T06:23:17.656Z,15.70
2018-08-25T06:25:45.936Z,15.80
2018-08-25T06:28:14.225Z,15.80
2018-08-25T06:30:42.492Z,16.00
2018-08-25T06:33:10.757Z,16.10
2018-08-25T06:35:39.016Z,16.10
2018-08-25T06:38:07.307Z,16.20
2018-08-25T06:40:35.585Z,16.30
2018-08-25T06:43:03.883Z,16.40
2018-08-25T06:45:32.160Z,16.40
2018-08-25T06:48:00.429Z,16.50
2018-08-25T06:50:28.709Z,16.60
2018-08-25T06:52:56.977Z,16.70
2018-08-25T06:55:25.262Z,17.20
2018-08-25T06:57:53.550Z,17.80
2018-08-25T07:00:21.818Z,18.20
2018-08-25T07:02:50.101Z,18.40
2018-08-25T07:05:18.804Z,18.60
2018-08-25T07:07:47.097Z,18.80
2018-08-25T07:10:15.364Z,19.10
2018-08-25T07:12:43.667Z,19.20
2018-08-25T07:15:11.912Z,19.30
2018-08-25T07:17:40.177Z,19.20
2018-08-25T07:20:08.460Z,19.20
2018-08-25T07:22:50.745Z,19.20
2018-08-25T07:25:19.033Z,19.20
2018-08-25T07:27:47.292Z,19.30
2018-08-25T07:30:15.565Z,19.20
2018-08-25T07:32:43.842Z,19.10
2018-08-25T07:35:12.112Z,19.20
2018-08-25T07:37:40.377Z,19.20
2018-08-25T07:40:08.700Z,19.30
2018-08-25T07:42:36.998Z,19.40
2018-08-25T07:45:05.605Z,19.50
2018-08-25T07:47:33.877Z,19.50
2018-08-25T07:50:02.150Z,19.60
2018-08-25T07:52:30.440Z,19.60
2018-08-25T07:54:58.721Z,19.50
2018-08-25T07:57:26.991Z,19.30
2018-08-25T07:59:55.302Z,19.00
2018-08-25T08:02:23.552Z,18.90
2018-08-25T08:04:51.953Z,18.60
2018-08-25T08:07:20.184Z,18.30
2018-08-25T08:09:48.496Z,18.10
2018-08-25T08:12:16.813Z,17.90
2018-08-25T08:14:45.045Z,17.80
2018-08-25T08:17:13.315Z,17.50
2018-08-25T08:19:41.576Z,17.30
2018-08-25T08:22:09.845Z,17.30
2018-08-25T08:24:38.117Z,17.20
2018-08-25T08:27:06.764Z,17.10
2018-08-25T08:29:35.072Z,17.20
2018-08-25T08:32:03.332Z,17.30
2018-08-25T08:34:31.629Z,17.40
2018-08-25T08:36:59.891Z,17.50
2018-08-25T08:39:28.228Z,17.70
2018-08-25T08:41:56.478Z,18.00
2018-08-25T08:44:24.763Z,18.10
2018-08-25T08:46:53.066Z,18.00
2018-08-25T08:49:21.349Z,17.90
2018-08-25T08:51:49.636Z,17.80
2018-08-25T08:54:17.914Z,17.80
2018-08-25T08:56:46.189Z,17.70
2018-08-25T08:59:14.489Z,17.70
2018-08-25T09:01:42.770Z,17.80
2018-08-25T09:04:11.090Z,17.90
2018-08-25T09:06:39.357Z,17.80
2018-08-25T09:09:09.171Z,17.80
2018-08-25T09:11:37.627Z,17.90
2018-08-25T09:14:05.893Z,18.10
2018-08-25T09:16:34.172Z,18.20
2018-08-25T09:19:02.474Z,18.40
2018-08-25T09:21:30.741Z,18.70
2018-08-25T09:23:59.004Z,19.10
2018-08-25T09:26:27.301Z,19.50
2018-08-25T09:28:55.596Z,19.70
2018-08-25T09:31:23.869Z,19.80
2018-08-25T09:33:52.140Z,19.80
2018-08-25T09:36:21.010Z,19.70
2018-08-25T09:38:49.658Z,19.40
2018-08-25T09:41:17.916Z,19.40
2018-08-25T09:43:46.173Z,19.20
2018-08-25T09:46:14.436Z,19.00
2018-08-25T09:48:42.722Z,18.90
2018-08-25T09:51:11.006Z,18.70
2018-08-25T09:53:39.381Z,18.80
2018-08-25T09:56:07.553Z,18.70
2018-08-25T09:58:35.817Z,18.90
2018-08-25T10:01:05.610Z,18.90
2018-08-25T10:03:34.899Z,19.10
2018-08-25T10:06:03.208Z,19.10
2018-08-25T10:08:31.512Z,19.30
2018-08-25T10:10:59.814Z,19.20
2018-08-25T10:13:28.076Z,19.30
2018-08-25T10:15:56.332Z,19.20
2018-08-25T10:18:24.639Z,19.10
2018-08-25T10:20:52.916Z,19.20
2018-08-25T10:23:21.241Z,19.20
2018-08-25T10:25:49.468Z,19.20
2018-08-25T10:28:17.740Z,19.10
2018-08-25T10:30:46.019Z,18.80
2018-08-25T10:33:14.274Z,18.70
2018-08-25T10:35:42.579Z,18.70
2018-08-25T10:38:10.829Z,18.40
2018-08-25T10:40:39.113Z,18.60
2018-08-25T10:43:07.386Z,18.60
2018-08-25T10:45:35.653Z,18.70
2018-08-25T10:48:03.981Z,18.90
2018-08-25T10:50:32.197Z,19.00
2018-08-25T10:53:00.477Z,19.00
2018-08-25T10:55:28.780Z,18.70
2018-08-25T10:57:57.074Z,18.50
2018-08-25T11:00:25.437Z,18.30
2018-08-25T11:02:53.616Z,18.40
2018-08-25T11:05:21.908Z,18.20
2018-08-25T11:07:50.169Z,18.20
2018-08-25T11:10:18.444Z,18.40
2018-08-25T11:12:46.722Z,18.70
2018-08-25T11:15:15.000Z,18.90
2018-08-25T11:17:43.274Z,18.90
2018-08-25T11:20:11.544Z,18.80
2018-08-25T11:22:39.820Z,18.80
2018-08-25T11:25:08.099Z,18.90
2018-08-25T11:27:36.356Z,18.90
2018-08-25T11:30:04.728Z,19.00
2018-08-25T11:32:33.017Z,19.10
2018-08-25T11:35:01.298Z,19.30
2018-08-25T11:37:29.733Z,19.10
2018-08-25T11:39:58.000Z,19.20
2018-08-25T11:42:26.277Z,19.40
2018-08-25T11:44:54.557Z,19.80
2018-08-25T11:47:22.836Z,19.80
2018-08-25T11:49:51.117Z,19.80
2018-08-25T11:52:19.397Z,19.50
2018-08-25T11:54:47.676Z,19.20
2018-08-25T11:57:15.949Z,19.10
2018-08-25T11:59:44.212Z,19.10
2018-08-25T12:02:12.560Z,19.00
2018-08-25T12:04:40.773Z,18.80
2018-08-25T12:07:09.040Z,18.50
2018-08-25T12:09:37.416Z,18.50
2018-08-25T12:12:05.596Z,18.50
2018-08-25T12:14:33.945Z,18.50
2018-08-25T12:17:02.224Z,18.40
2018-08-25T12:19:30.537Z,18.00
2018-08-25T12:21:58.809Z,17.90
2018-08-25T12:24:27.150Z,17.80
2018-08-25T12:26:56.360Z,17.80
2018-08-25T12:29:24.629Z,17.90
2018-08-25T12:31:52.905Z,17.90
2018-08-25T12:34:21.177Z,17.90
2018-08-25T12:36:49.461Z,17.80
2018-08-25T12:39:17.748Z,17.70
2018-08-25T12:41:46.012Z,17.60
2018-08-25T12:44:14.286Z,17.60
2018-08-25T12:46:42.565Z,17.30
2018-08-25T12:49:10.841Z,17.20
2018-08-25T12:51:39.182Z,17.00
2018-08-25T12:54:07.396Z,16.90
2018-08-25T12:56:35.680Z,16.80
2018-08-25T12:59:03.987Z,16.80
2018-08-25T13:01:32.283Z,16.60
2018-08-25T13:04:00.557Z,16.40
2018-08-25T13:06:28.933Z,16.00
2018-08-25T13:08:57.204Z,15.50
2018-08-25T13:11:25.481Z,15.20
2018-08-25T13:13:53.779Z,14.90
2018-08-25T13:16:22.046Z,14.60
2018-08-25T13:18:50.385Z,14.40
2018-08-25T13:21:18.605Z,14.30
2018-08-25T13:23:46.925Z,14.20
2018-08-25T13:26:15.193Z,14.10
2018-08-25T13:28:43.468Z,14.10
2018-08-25T13:31:11.757Z,14.20
2018-08-25T13:33:40.017Z,14.30
2018-08-25T13:36:08.301Z,14.70
2018-08-25T13:38:36.584Z,15.20
2018-08-25T13:41:04.968Z,15.60
2018-08-25T13:43:33.273Z,15.80
2018-08-25T13:46:01.555Z,15.90
2018-08-25T13:48:29.833Z,15.70
2018-08-25T13:50:58.175Z,15.90
2018-08-25T13:53:26.389Z,16.10
2018-08-25T13:55:54.775Z,15.90
2018-08-25T13:58:23.160Z,15.50
2018-08-25T14:00:51.331Z,15.00
2018-08-25T14:03:19.597Z,14.70
2018-08-25T14:05:47.868Z,14.40
2018-08-25T14:08:16.229Z,14.40
2018-08-25T14:10:44.419Z,14.30
2018-08-25T14:13:12.676Z,14.20
2018-08-25T14:15:40.948Z,14.20
2018-08-25T14:18:09.224Z,14.40
2018-08-25T14:20:37.525Z,14.90
2018-08-25T14:23:05.864Z,15.30
2018-08-25T14:25:34.153Z,15.50
2018-08-25T14:28:02.457Z,15.40
2018-08-25T14:30:30.749Z,15.60
2018-08-25T14:32:59.073Z,15.90
2018-08-25T14:35:27.340Z,16.20
2018-08-25T14:37:55.613Z,16.60
2018-08-25T14:40:23.882Z,16.70
2018-08-25T14:42:52.154Z,16.90
2018-08-25T14:45:20.443Z,16.60
2018-08-25T14:47:48.733Z,16.30
2018-08-25T14:50:17.023Z,16.10
2018-08-25T14:52:45.297Z,16.30
2018-08-25T14:55:13.577Z,16.50
2018-08-25T14:57:41.854Z,16.60
2018-08-25T15:00:10.122Z,16.60
2018-08-25T15:02:38.397Z,16.60
2018-08-25T15:05:07.064Z,16.80
2018-08-25T15:07:35.349Z,16.90
2018-08-25T15:10:03.660Z,16.90
2018-08-25T15:12:31.928Z,16.90
2018-08-25T15:15:00.238Z,16.90
2018-08-25T15:17:28.521Z,17.00
2018-08-25T15:19:56.828Z,16.90
2018-08-25T15:22:25.098Z,16.80
2018-08-25T15:24:53.385Z,16.90
2018-08-25T15:27:21.742Z,16.90
2018-08-25T15:29:49.938Z,17.00
2018-08-25T15:32:18.218Z,17.00
2018-08-25T15:34:46.502Z,17.10
2018-08-25T15:37:14.757Z,17.20
2018-08-25T15:39:43.044Z,17.20
2018-08-25T15:42:11.336Z,17.20
2018-08-25T15:44:39.633Z,17.20
2018-08-25T15:47:07.892Z,17.10
2018-08-25T15:49:36.204Z,17.20
2018-08-25T15:52:04.537Z,17.20
2018-08-25T15:54:32.809Z,17.20
2018-08-25T15:57:01.097Z,17.30
2018-08-25T15:59:29.414Z,17.30
2018-08-25T16:01:57.684Z,17.30
2018-08-25T16:04:25.973Z,17.20
2018-08-25T16:06:54.252Z,17.10
2018-08-25T16:09:22.528Z,17.00
2018-08-25T16:11:50.846Z,17.00
2018-08-25T16:14:19.085Z,17.00
2018-08-25T16:16:47.373Z,16.70
2018-08-25T16:19:15.683Z,16.40
2018-08-25T16:21:43.925Z,16.10
2018-08-25T16:24:12.212Z,15.80
2018-08-25T16:26:40.494Z,15.60
2018-08-25T16:29:08.776Z,15.50
2018-08-25T16:31:37.037Z,15.40
2018-08-25T16:34:05.330Z,15.30
2018-08-25T16:36:33.615Z,15.20
2018-08-25T16:39:01.937Z,15.40
2018-08-25T16:41:30.228Z,15.20
2018-08-25T16:43:58.510Z,15.10
2018-08-25T16:46:26.878Z,14.90
2018-08-25T16:48:55.387Z,14.90
2018-08-25T16:51:23.677Z,14.90
2018-08-25T16:53:51.957Z,14.90
2018-08-25T16:56:20.245Z,15.30
2018-08-25T16:58:48.544Z,15.30
2018-08-25T17:01:16.852Z,15.20
2018-08-25T17:03:45.137Z,15.20
2018-08-25T17:06:13.409Z,15.60
2018-08-25T17:08:41.812Z,16.00
2018-08-25T17:11:10.029Z,16.30
2018-08-25T17:13:38.312Z,16.30
2018-08-25T17:16:06.616Z,16.50
2018-08-25T17:18:34.894Z,16.60
2018-08-25T17:21:03.239Z,16.60
2018-08-25T17:23:31.475Z,16.70
2018-08-25T17:25:59.820Z,16.80
2018-08-25T17:28:28.541Z,16.80
2018-08-25T17:30:56.824Z,16.90
2018-08-25T17:33:25.105Z,16.80
2018-08-25T17:35:53.394Z,16.70
2018-08-25T17:38:21.707Z,16.70
2018-08-25T17:40:49.985Z,16.70
2018-08-25T17:43:18.245Z,16.70
2018-08-25T17:45:46.516Z,16.70
2018-08-25T17:48:14.789Z,16.10
2018-08-25T17:50:43.072Z,15.80
2018-08-25T17:53:11.448Z,15.50
2018-08-25T17:55:39.721Z,15.30
2018-08-25T17:58:07.997Z,15.10
2018-08-25T18:00:36.285Z,15.10
2018-08-25T18:03:04.625Z,14.90
2018-08-25T18:05:32.912Z,14.80
2018-08-25T18:08:01.230Z,14.60
2018-08-25T18:10:29.548Z,14.40
2018-08-25T18:12:57.837Z,14.20
2018-08-25T18:15:26.121Z,14.20
2018-08-25T18:17:54.403Z,14.10
2018-08-25T18:20:22.685Z,14.10
2018-08-25T18:22:50.949Z,13.90
2018-08-25T18:25:19.233Z,14.10
2018-08-25T18:27:47.493Z,14.10
2018-08-25T18:30:15.848Z,14.30
2018-08-25T18:32:44.044Z,14.40
2018-08-25T18:35:12.325Z,14.40
2018-08-25T18:37:40.580Z,14.20
2018-08-25T18:40:08.879Z,14.10
2018-08-25T18:42:37.175Z,13.90
2018-08-25T18:45:05.730Z,13.80
2018-08-25T18:47:34.009Z,13.70
2018-08-25T18:50:02.317Z,13.60
2018-08-25T18:52:30.577Z,13.50
2018-08-25T18:54:58.993Z,13.50
2018-08-25T18:57:27.145Z,13.50
2018-08-25T18:59:55.413Z,13.50
2018-08-25T19:02:23.762Z,13.40
2018-08-25T19:04:51.993Z,13.40
2018-08-25T19:07:20.284Z,13.30
2018-08-25T19:09:48.549Z,13.30
2018-08-25T19:12:16.821Z,13.30
2018-08-25T19:14:45.090Z,13.30
2018-08-25T19:17:13.377Z,13.20
2018-08-25T19:19:41.644Z,13.20
2018-08-25T19:22:10.378Z,13.10
2018-08-25T19:24:38.675Z,13.20
2018-08-25T19:27:07.254Z,13.20
2018-08-25T19:29:35.605Z,13.20
2018-08-25T19:32:03.881Z,13.20
2018-08-25T19:34:32.161Z,13.20
2018-08-25T19:37:00.496Z,13.10
2018-08-25T19:39:28.764Z,13.10
2018-08-25T19:41:57.049Z,13.20
2018-08-25T19:44:25.314Z,13.10
2018-08-25T19:46:53.635Z,13.10
2018-08-25T19:49:21.854Z,13.10
2018-08-25T19:51:50.125Z,13.20
2018-08-25T19:54:18.397Z,13.20
2018-08-25T19:56:46.668Z,13.20
2018-08-25T19:59:14.985Z,13.20
2018-08-25T20:01:43.268Z,13.20
2018-08-25T20:04:11.563Z,13.20
2018-08-25T20:06:39.857Z,13.20
2018-08-25T20:09:08.419Z,13.20
2018-08-25T20:11:37.284Z,13.30
2018-08-25T20:14:05.645Z,13.30
2018-08-25T20:16:33.911Z,13.40
2018-08-25T20:19:02.836Z,13.60
2018-08-25T20:21:31.096Z,13.80
2018-08-25T20:23:59.379Z,13.90
2018-08-25T20:26:27.636Z,13.90
2018-08-25T20:28:55.926Z,14.00
2018-08-25T20:31:24.194Z,14.10
2018-08-25T20:33:52.452Z,14.40
2018-08-25T20:36:20.710Z,14.40
2018-08-25T20:38:48.997Z,14.50
2018-08-25T20:41:17.284Z,14.50
2018-08-25T20:43:45.564Z,14.30
2018-08-25T20:46:13.850Z,14.20
2018-08-25T20:48:42.124Z,14.10
2018-08-25T20:51:10.413Z,14.40
2018-08-25T20:53:38.692Z,14.40
2018-08-25T20:56:06.961Z,14.00
2018-08-25T20:58:35.232Z,13.60
2018-08-25T21:01:03.525Z,13.30
2018-08-25T21:03:31.806Z,13.10
2018-08-25T21:06:00.091Z,13.00
2018-08-25T21:08:28.365Z,13.10
2018-08-25T21:10:56.640Z,13.20
2018-08-25T21:13:24.953Z,13.20
2018-08-25T21:15:53.282Z,13.20
2018-08-25T21:18:21.484Z,13.30
2018-08-25T21:20:49.790Z,13.40
2018-08-25T21:23:18.077Z,13.30
2018-08-25T21:25:46.365Z,13.20
2018-08-25T21:28:14.646Z,13.00
2018-08-25T21:30:42.925Z,12.70
2018-08-25T21:33:11.192Z,12.60
2018-08-25T21:35:39.476Z,12.50
2018-08-25T21:38:07.747Z,12.40
2018-08-25T21:40:36.045Z,12.30
2018-08-25T21:43:04.314Z,12.10
2018-08-25T21:45:32.577Z,12.00
2018-08-25T21:48:00.864Z,11.90
2018-08-25T21:50:29.126Z,11.80
2018-08-25T21:52:57.413Z,11.80
2018-08-25T21:55:25.908Z,11.60
2018-08-25T21:57:54.181Z,11.60
2018-08-25T22:00:22.485Z,11.50
2018-08-25T22:02:50.753Z,11.60
2018-08-25T22:05:19.039Z,11.60
2018-08-25T22:07:47.324Z,11.60
2018-08-25T22:10:15.605Z,11.60
2018-08-25T22:12:43.881Z,11.60
2018-08-25T22:15:12.145Z,11.50
2018-08-25T22:17:40.429Z,11.50
2018-08-25T22:20:08.727Z,11.60
2018-08-25T22:22:37.006Z,11.60
2018-08-25T22:25:05.329Z,11.60
2018-08-25T22:27:33.593Z,11.60
2018-08-25T22:30:01.909Z,11.70
2018-08-25T22:32:30.169Z,11.70
2018-08-25T22:34:58.444Z,11.70
2018-08-25T22:37:26.724Z,11.70
2018-08-25T22:39:54.997Z,11.70
2018-08-25T22:42:23.261Z,11.80
2018-08-25T22:44:51.517Z,11.70
2018-08-25T22:47:19.793Z,11.70
2018-08-25T22:49:48.065Z,11.70
2018-08-25T22:52:19.609Z,11.70
2018-08-25T22:54:47.913Z,11.70
2018-08-25T22:57:16.182Z,11.70
2018-08-25T22:59:44.493Z,11.70
2018-08-25T23:02:12.756Z,11.70
2018-08-25T23:04:41.038Z,11.70
2018-08-25T23:07:09.334Z,11.80
2018-08-25T23:09:37.604Z,11.80
2018-08-25T23:12:05.908Z,11.80
2018-08-25T23:14:34.193Z,11.80
2018-08-25T23:17:02.453Z,11.80
2018-08-25T23:19:30.714Z,11.70
2018-08-25T23:21:58.979Z,11.70
2018-08-25T23:24:27.250Z,11.80
2018-08-25T23:26:55.520Z,11.80
2018-08-25T23:29:23.792Z,11.90
2018-08-25T23:31:52.069Z,12.00
2018-08-25T23:34:20.335Z,12.00
2018-08-25T23:36:48.619Z,12.00
2018-08-25T23:39:16.902Z,12.10
2018-08-25T23:41:45.166Z,12.20
2018-08-25T23:44:13.505Z,12.20
2018-08-25T23:46:41.794Z,12.10
2018-08-25T23:49:10.053Z,12.10
2018-08-25T23:51:38.344Z,12.10
2018-08-25T23:54:06.821Z,12.00
2018-08-25T23:56:35.098Z,11.90
2018-08-25T23:59:03.398Z,11.80
